METAR Data
IDs: Format: Raw Decoded Include TAF

Data at: 0259 UTC 24 Oct 2019

METAR for:KSPB (Scappoose Ind Airpar, OR, US)
Text:KSPB 240253Z AUTO 31005KT 10SM CLR 12/07 A3039 RMK AO2 SLP291 T01220067 55003
Temperature: 12.2°C ( 54°F)
Dewpoint: 6.7°C ( 44°F) [RH = 69%]
Pressure (altimeter):30.39 inches Hg (1029.2 mb) [Sea level pressure: 1029.1 mb]
Winds:from the NW (310 degrees) at 6 MPH (5 knots; 2.6 m/s)
Visibility:10 or more sm (16+ km)
Ceiling:at least 12,000 feet AGL
Clouds:sky clear below 12,000 feet AGL
QC Flag:automated observation with no human augmentation